sensor_id;sensor_type;location;lat;lon;timestamp;temperature;humidity
578;DHT22;275;48.492;9.214;2023-06-19T00:00:59;26.50;22.60
578;DHT22;275;48.492;9.214;2023-06-19T00:03:28;26.80;22.20
578;DHT22;275;48.492;9.214;2023-06-19T00:05:55;26.80;22.10
578;DHT22;275;48.492;9.214;2023-06-19T00:08:22;27.00;22.00
578;DHT22;275;48.492;9.214;2023-06-19T00:10:49;27.00;22.30
578;DHT22;275;48.492;9.214;2023-06-19T00:13:16;27.00;22.20
578;DHT22;275;48.492;9.214;2023-06-19T00:15:45;27.20;22.10
578;DHT22;275;48.492;9.214;2023-06-19T00:18:12;27.30;21.90
578;DHT22;275;48.492;9.214;2023-06-19T00:20:41;27.20;22.00
578;DHT22;275;48.492;9.214;2023-06-19T00:23:11;27.00;22.40
578;DHT22;275;48.492;9.214;2023-06-19T00:25:40;27.40;21.90
578;DHT22;275;48.492;9.214;2023-06-19T00:28:07;27.60;21.60
578;DHT22;275;48.492;9.214;2023-06-19T00:30:39;27.80;21.40
578;DHT22;275;48.492;9.214;2023-06-19T00:33:07;27.90;21.20
578;DHT22;275;48.492;9.214;2023-06-19T00:35:37;27.80;21.40
578;DHT22;275;48.492;9.214;2023-06-19T00:38:05;27.20;22.20
578;DHT22;275;48.492;9.214;2023-06-19T00:40:33;27.30;21.90
578;DHT22;275;48.492;9.214;2023-06-19T00:43:00;27.40;21.60
578;DHT22;275;48.492;9.214;2023-06-19T00:45:27;27.40;21.60
578;DHT22;275;48.492;9.214;2023-06-19T00:47:55;27.20;22.10
578;DHT22;275;48.492;9.214;2023-06-19T00:50:23;27.20;22.00
578;DHT22;275;48.492;9.214;2023-06-19T00:52:50;27.30;21.80
578;DHT22;275;48.492;9.214;2023-06-19T00:55:17;27.40;21.80
578;DHT22;275;48.492;9.214;2023-06-19T00:57:45;27.30;22.00
578;DHT22;275;48.492;9.214;2023-06-19T01:00:13;27.60;21.70
578;DHT22;275;48.492;9.214;2023-06-19T01:02:40;27.40;22.00
578;DHT22;275;48.492;9.214;2023-06-19T01:05:07;27.00;22.50
578;DHT22;275;48.492;9.214;2023-06-19T01:07:43;27.00;22.70
578;DHT22;275;48.492;9.214;2023-06-19T01:10:13;27.00;22.50
578;DHT22;275;48.492;9.214;2023-06-19T01:12:46;27.20;22.50
578;DHT22;275;48.492;9.214;2023-06-19T01:15:16;27.20;22.60
578;DHT22;275;48.492;9.214;2023-06-19T01:17:44;27.10;22.70
578;DHT22;275;48.492;9.214;2023-06-19T01:20:11;26.90;22.80
578;DHT22;275;48.492;9.214;2023-06-19T01:22:39;27.20;22.60
578;DHT22;275;48.492;9.214;2023-06-19T01:25:09;27.20;22.60
578;DHT22;275;48.492;9.214;2023-06-19T01:27:36;27.10;22.90
578;DHT22;275;48.492;9.214;2023-06-19T01:30:04;27.20;22.70
578;DHT22;275;48.492;9.214;2023-06-19T01:32:34;27.30;22.50
578;DHT22;275;48.492;9.214;2023-06-19T01:35:06;27.10;23.20
578;DHT22;275;48.492;9.214;2023-06-19T01:37:34;27.00;23.20
578;DHT22;275;48.492;9.214;2023-06-19T01:40:05;26.60;23.60
578;DHT22;275;48.492;9.214;2023-06-19T01:42:36;25.40;26.40
578;DHT22;275;48.492;9.214;2023-06-19T01:45:04;24.50;27.60
578;DHT22;275;48.492;9.214;2023-06-19T01:47:31;24.30;28.10
578;DHT22;275;48.492;9.214;2023-06-19T01:49:58;24.40;28.40
578;DHT22;275;48.492;9.214;2023-06-19T01:52:25;24.60;27.60
578;DHT22;275;48.492;9.214;2023-06-19T01:54:52;24.80;27.40
578;DHT22;275;48.492;9.214;2023-06-19T01:57:20;24.40;27.80
578;DHT22;275;48.492;9.214;2023-06-19T01:59:47;24.10;28.50
578;DHT22;275;48.492;9.214;2023-06-19T02:02:14;24.00;28.90
578;DHT22;275;48.492;9.214;2023-06-19T02:04:41;24.10;28.70
578;DHT22;275;48.492;9.214;2023-06-19T02:07:08;24.20;28.50
578;DHT22;275;48.492;9.214;2023-06-19T02:09:35;24.40;28.40
578;DHT22;275;48.492;9.214;2023-06-19T02:12:02;24.60;28.20
578;DHT22;275;48.492;9.214;2023-06-19T02:14:31;24.60;28.40
578;DHT22;275;48.492;9.214;2023-06-19T02:16:57;24.50;28.70
578;DHT22;275;48.492;9.214;2023-06-19T02:19:24;24.40;29.00
578;DHT22;275;48.492;9.214;2023-06-19T02:21:51;24.50;28.80
578;DHT22;275;48.492;9.214;2023-06-19T02:24:18;24.40;29.00
578;DHT22;275;48.492;9.214;2023-06-19T02:26:45;24.40;29.40
578;DHT22;275;48.492;9.214;2023-06-19T02:29:11;24.40;29.40
578;DHT22;275;48.492;9.214;2023-06-19T02:31:39;24.80;28.70
578;DHT22;275;48.492;9.214;2023-06-19T02:34:07;25.20;28.40
578;DHT22;275;48.492;9.214;2023-06-19T02:36:34;25.20;28.10
578;DHT22;275;48.492;9.214;2023-06-19T02:39:01;25.60;27.50
578;DHT22;275;48.492;9.214;2023-06-19T02:41:28;25.50;27.70
578;DHT22;275;48.492;9.214;2023-06-19T02:43:55;25.30;28.00
578;DHT22;275;48.492;9.214;2023-06-19T02:46:22;25.20;28.20
578;DHT22;275;48.492;9.214;2023-06-19T02:48:50;25.30;27.90
578;DHT22;275;48.492;9.214;2023-06-19T02:51:17;25.50;27.80
578;DHT22;275;48.492;9.214;2023-06-19T02:53:43;25.40;27.70
578;DHT22;275;48.492;9.214;2023-06-19T02:56:11;25.50;27.70
578;DHT22;275;48.492;9.214;2023-06-19T02:58:38;25.20;28.10
578;DHT22;275;48.492;9.214;2023-06-19T03:01:05;24.90;28.60
578;DHT22;275;48.492;9.214;2023-06-19T03:03:34;24.80;28.90
578;DHT22;275;48.492;9.214;2023-06-19T03:06:04;24.90;28.70
578;DHT22;275;48.492;9.214;2023-06-19T03:08:33;25.10;28.60
578;DHT22;275;48.492;9.214;2023-06-19T03:11:00;25.20;28.40
578;DHT22;275;48.492;9.214;2023-06-19T03:13:29;25.00;28.80
578;DHT22;275;48.492;9.214;2023-06-19T03:15:56;24.40;29.80
578;DHT22;275;48.492;9.214;2023-06-19T03:18:23;24.30;30.00
578;DHT22;275;48.492;9.214;2023-06-19T03:20:50;24.00;30.50
578;DHT22;275;48.492;9.214;2023-06-19T03:23:18;24.20;30.20
578;DHT22;275;48.492;9.214;2023-06-19T03:25:45;23.70;31.40
578;DHT22;275;48.492;9.214;2023-06-19T03:28:12;23.90;31.00
578;DHT22;275;48.492;9.214;2023-06-19T03:30:38;23.60;31.50
578;DHT22;275;48.492;9.214;2023-06-19T03:33:05;23.80;31.00
578;DHT22;275;48.492;9.214;2023-06-19T03:35:32;24.40;29.80
578;DHT22;275;48.492;9.214;2023-06-19T03:37:59;24.30;29.90
578;DHT22;275;48.492;9.214;2023-06-19T03:40:27;24.20;30.00
578;DHT22;275;48.492;9.214;2023-06-19T03:42:54;24.10;30.00
578;DHT22;275;48.492;9.214;2023-06-19T03:45:21;24.00;30.10
578;DHT22;275;48.492;9.214;2023-06-19T03:47:48;24.50;29.50
578;DHT22;275;48.492;9.214;2023-06-19T03:50:15;24.40;29.50
578;DHT22;275;48.492;9.214;2023-06-19T03:52:41;24.00;30.00
578;DHT22;275;48.492;9.214;2023-06-19T03:55:08;24.30;29.60
578;DHT22;275;48.492;9.214;2023-06-19T03:57:36;23.60;30.50
578;DHT22;275;48.492;9.214;2023-06-19T04:00:04;23.40;31.20
578;DHT22;275;48.492;9.214;2023-06-19T04:02:33;23.30;31.60
578;DHT22;275;48.492;9.214;2023-06-19T04:05:00;24.20;30.00
578;DHT22;275;48.492;9.214;2023-06-19T04:07:26;24.30;29.70
578;DHT22;275;48.492;9.214;2023-06-19T04:09:53;24.20;29.60
578;DHT22;275;48.492;9.214;2023-06-19T04:12:20;23.90;30.10
578;DHT22;275;48.492;9.214;2023-06-19T04:14:48;24.20;29.70
578;DHT22;275;48.492;9.214;2023-06-19T04:17:15;24.30;29.80
578;DHT22;275;48.492;9.214;2023-06-19T04:19:42;24.40;29.70
578;DHT22;275;48.492;9.214;2023-06-19T04:22:09;24.30;29.90
578;DHT22;275;48.492;9.214;2023-06-19T04:24:36;24.20;30.00
578;DHT22;275;48.492;9.214;2023-06-19T04:27:03;24.50;29.70
578;DHT22;275;48.492;9.214;2023-06-19T04:29:30;25.00;28.80
578;DHT22;275;48.492;9.214;2023-06-19T04:31:58;25.40;28.20
578;DHT22;275;48.492;9.214;2023-06-19T04:34:25;24.90;28.70
578;DHT22;275;48.492;9.214;2023-06-19T04:36:52;24.30;30.10
578;DHT22;275;48.492;9.214;2023-06-19T04:39:19;24.40;31.50
578;DHT22;275;48.492;9.214;2023-06-19T04:41:46;24.00;32.60
578;DHT22;275;48.492;9.214;2023-06-19T04:44:13;23.40;34.40
578;DHT22;275;48.492;9.214;2023-06-19T04:46:40;23.30;34.80
578;DHT22;275;48.492;9.214;2023-06-19T04:49:09;23.90;34.20
578;DHT22;275;48.492;9.214;2023-06-19T04:51:36;23.80;34.60
578;DHT22;275;48.492;9.214;2023-06-19T04:54:03;23.60;35.60
578;DHT22;275;48.492;9.214;2023-06-19T04:56:29;24.10;34.90
578;DHT22;275;48.492;9.214;2023-06-19T04:58:57;24.40;34.90
578;DHT22;275;48.492;9.214;2023-06-19T05:01:27;24.60;34.90
578;DHT22;275;48.492;9.214;2023-06-19T05:03:56;23.60;35.90
578;DHT22;275;48.492;9.214;2023-06-19T05:06:26;23.60;36.60
578;DHT22;275;48.492;9.214;2023-06-19T05:08:52;23.70;35.90
578;DHT22;275;48.492;9.214;2023-06-19T05:11:19;23.60;36.90
578;DHT22;275;48.492;9.214;2023-06-19T05:13:46;23.50;37.60
578;DHT22;275;48.492;9.214;2023-06-19T05:16:13;23.90;37.00
578;DHT22;275;48.492;9.214;2023-06-19T05:18:41;24.00;36.90
578;DHT22;275;48.492;9.214;2023-06-19T05:21:09;24.30;36.80
578;DHT22;275;48.492;9.214;2023-06-19T05:23:37;24.70;35.80
578;DHT22;275;48.492;9.214;2023-06-19T05:26:04;24.90;35.90
578;DHT22;275;48.492;9.214;2023-06-19T05:28:31;25.40;35.80
578;DHT22;275;48.492;9.214;2023-06-19T05:30:58;25.90;34.40
578;DHT22;275;48.492;9.214;2023-06-19T05:33:25;25.80;33.10
578;DHT22;275;48.492;9.214;2023-06-19T05:35:52;25.30;33.40
578;DHT22;275;48.492;9.214;2023-06-19T05:38:19;25.50;33.80
578;DHT22;275;48.492;9.214;2023-06-19T05:40:48;25.40;33.60
578;DHT22;275;48.492;9.214;2023-06-19T05:43:14;25.50;32.90
578;DHT22;275;48.492;9.214;2023-06-19T05:45:41;25.80;32.40
578;DHT22;275;48.492;9.214;2023-06-19T05:48:08;25.70;33.30
578;DHT22;275;48.492;9.214;2023-06-19T05:50:35;25.60;33.20
578;DHT22;275;48.492;9.214;2023-06-19T05:53:02;25.50;32.80
578;DHT22;275;48.492;9.214;2023-06-19T05:55:28;25.20;33.70
578;DHT22;275;48.492;9.214;2023-06-19T05:57:57;25.20;34.50
578;DHT22;275;48.492;9.214;2023-06-19T06:00:23;25.90;32.70
578;DHT22;275;48.492;9.214;2023-06-19T06:02:50;26.80;31.00
578;DHT22;275;48.492;9.214;2023-06-19T06:05:17;27.40;30.90
578;DHT22;275;48.492;9.214;2023-06-19T06:07:46;27.40;29.90
578;DHT22;275;48.492;9.214;2023-06-19T06:10:12;27.70;29.90
578;DHT22;275;48.492;9.214;2023-06-19T06:12:39;27.80;29.40
578;DHT22;275;48.492;9.214;2023-06-19T06:15:08;27.70;29.80
578;DHT22;275;48.492;9.214;2023-06-19T06:17:35;27.30;30.00
578;DHT22;275;48.492;9.214;2023-06-19T06:20:02;27.20;31.10
578;DHT22;275;48.492;9.214;2023-06-19T06:22:33;27.80;29.90
578;DHT22;275;48.492;9.214;2023-06-19T06:25:00;28.20;29.40
578;DHT22;275;48.492;9.214;2023-06-19T06:27:27;28.70;28.70
578;DHT22;275;48.492;9.214;2023-06-19T06:29:54;29.10;28.50
578;DHT22;275;48.492;9.214;2023-06-19T06:32:22;28.90;28.30
578;DHT22;275;48.492;9.214;2023-06-19T06:34:49;28.70;28.50
578;DHT22;275;48.492;9.214;2023-06-19T06:37:15;28.30;29.30
578;DHT22;275;48.492;9.214;2023-06-19T06:39:48;28.10;29.70
578;DHT22;275;48.492;9.214;2023-06-19T06:42:14;27.80;27.30
578;DHT22;275;48.492;9.214;2023-06-19T06:44:41;27.50;30.30
578;DHT22;275;48.492;9.214;2023-06-19T06:47:08;27.30;31.10
578;DHT22;275;48.492;9.214;2023-06-19T06:49:36;27.30;31.10
578;DHT22;275;48.492;9.214;2023-06-19T06:52:03;27.30;30.90
578;DHT22;275;48.492;9.214;2023-06-19T06:54:30;27.40;30.20
578;DHT22;275;48.492;9.214;2023-06-19T06:56:57;27.70;30.60
578;DHT22;275;48.492;9.214;2023-06-19T06:59:25;27.80;29.60
578;DHT22;275;48.492;9.214;2023-06-19T07:01:52;28.00;29.20
578;DHT22;275;48.492;9.214;2023-06-19T07:04:19;28.20;28.60
578;DHT22;275;48.492;9.214;2023-06-19T07:06:47;28.00;29.20
578;DHT22;275;48.492;9.214;2023-06-19T07:09:14;27.90;29.30
578;DHT22;275;48.492;9.214;2023-06-19T07:11:41;27.80;29.60
578;DHT22;275;48.492;9.214;2023-06-19T07:14:08;27.30;30.70
578;DHT22;275;48.492;9.214;2023-06-19T07:16:35;26.30;33.20
578;DHT22;275;48.492;9.214;2023-06-19T07:19:02;26.60;32.80
578;DHT22;275;48.492;9.214;2023-06-19T07:21:31;27.10;31.70
578;DHT22;275;48.492;9.214;2023-06-19T07:23:59;26.70;32.60
578;DHT22;275;48.492;9.214;2023-06-19T07:26:26;26.40;33.80
578;DHT22;275;48.492;9.214;2023-06-19T07:28:53;26.60;33.10
578;DHT22;275;48.492;9.214;2023-06-19T07:31:20;26.90;32.60
578;DHT22;275;48.492;9.214;2023-06-19T07:33:47;28.00;30.80
578;DHT22;275;48.492;9.214;2023-06-19T07:36:13;28.60;29.60
578;DHT22;275;48.492;9.214;2023-06-19T07:38:42;29.10;28.60
578;DHT22;275;48.492;9.214;2023-06-19T07:41:10;28.90;29.20
578;DHT22;275;48.492;9.214;2023-06-19T07:43:37;30.60;28.00
578;DHT22;275;48.492;9.214;2023-06-19T07:46:04;33.30;23.80
578;DHT22;275;48.492;9.214;2023-06-19T07:48:31;35.30;20.90
578;DHT22;275;48.492;9.214;2023-06-19T07:50:58;34.60;20.70
578;DHT22;275;48.492;9.214;2023-06-19T07:53:25;33.40;21.80
578;DHT22;275;48.492;9.214;2023-06-19T07:55:52;32.90;22.60
578;DHT22;275;48.492;9.214;2023-06-19T07:58:20;32.30;23.00
578;DHT22;275;48.492;9.214;2023-06-19T08:00:47;32.00;23.00
578;DHT22;275;48.492;9.214;2023-06-19T08:03:14;31.60;23.40
578;DHT22;275;48.492;9.214;2023-06-19T08:05:41;31.70;23.50
578;DHT22;275;48.492;9.214;2023-06-19T08:08:08;32.10;23.00
578;DHT22;275;48.492;9.214;2023-06-19T08:10:35;32.40;22.50
578;DHT22;275;48.492;9.214;2023-06-19T08:13:02;31.80;22.70
578;DHT22;275;48.492;9.214;2023-06-19T08:15:30;31.70;22.90
578;DHT22;275;48.492;9.214;2023-06-19T08:17:57;32.40;22.10
578;DHT22;275;48.492;9.214;2023-06-19T08:20:24;33.60;20.30
578;DHT22;275;48.492;9.214;2023-06-19T08:22:50;34.50;19.10
578;DHT22;275;48.492;9.214;2023-06-19T08:25:17;35.70;17.30
578;DHT22;275;48.492;9.214;2023-06-19T08:27:44;36.10;16.80
578;DHT22;275;48.492;9.214;2023-06-19T08:30:11;35.50;17.00
578;DHT22;275;48.492;9.214;2023-06-19T08:32:40;36.70;15.80
578;DHT22;275;48.492;9.214;2023-06-19T08:35:07;38.10;15.70
578;DHT22;275;48.492;9.214;2023-06-19T08:37:34;39.50;14.00
578;DHT22;275;48.492;9.214;2023-06-19T08:40:01;40.10;13.40
578;DHT22;275;48.492;9.214;2023-06-19T08:42:29;40.90;12.30
578;DHT22;275;48.492;9.214;2023-06-19T08:44:56;41.20;11.70
578;DHT22;275;48.492;9.214;2023-06-19T08:47:29;38.50;12.50
578;DHT22;275;48.492;9.214;2023-06-19T08:49:58;35.70;14.00
578;DHT22;275;48.492;9.214;2023-06-19T08:52:25;34.40;15.30
578;DHT22;275;48.492;9.214;2023-06-19T08:54:51;33.00;16.90
578;DHT22;275;48.492;9.214;2023-06-19T08:57:18;31.30;18.70
578;DHT22;275;48.492;9.214;2023-06-19T08:59:48;30.20;21.40
578;DHT22;275;48.492;9.214;2023-06-19T09:02:15;30.10;21.10
578;DHT22;275;48.492;9.214;2023-06-19T09:04:42;30.60;20.90
578;DHT22;275;48.492;9.214;2023-06-19T09:07:12;30.80;21.00
578;DHT22;275;48.492;9.214;2023-06-19T09:09:44;30.20;22.20
578;DHT22;275;48.492;9.214;2023-06-19T09:12:12;32.40;20.10
578;DHT22;275;48.492;9.214;2023-06-19T09:14:40;34.80;17.40
578;DHT22;275;48.492;9.214;2023-06-19T09:17:10;37.00;15.20
578;DHT22;275;48.492;9.214;2023-06-19T09:19:37;38.30;13.40
578;DHT22;275;48.492;9.214;2023-06-19T09:22:06;39.30;12.00
578;DHT22;275;48.492;9.214;2023-06-19T09:24:37;40.60;10.90
578;DHT22;275;48.492;9.214;2023-06-19T09:27:08;42.40;9.30
578;DHT22;275;48.492;9.214;2023-06-19T09:29:37;41.60;9.40
578;DHT22;275;48.492;9.214;2023-06-19T09:32:15;38.30;11.60
578;DHT22;275;48.492;9.214;2023-06-19T09:34:41;37.50;13.00
578;DHT22;275;48.492;9.214;2023-06-19T09:37:09;37.20;13.50
578;DHT22;275;48.492;9.214;2023-06-19T09:39:38;38.80;12.20
578;DHT22;275;48.492;9.214;2023-06-19T09:42:07;40.10;10.80
578;DHT22;275;48.492;9.214;2023-06-19T09:44:39;39.80;10.60
578;DHT22;275;48.492;9.214;2023-06-19T09:47:10;39.70;10.60
578;DHT22;275;48.492;9.214;2023-06-19T09:49:44;40.30;10.00
578;DHT22;275;48.492;9.214;2023-06-19T09:52:14;40.40;8.40
578;DHT22;275;48.492;9.214;2023-06-19T09:54:43;40.20;9.10
578;DHT22;275;48.492;9.214;2023-06-19T09:57:10;40.80;8.40
578;DHT22;275;48.492;9.214;2023-06-19T09:59:38;39.10;10.00
578;DHT22;275;48.492;9.214;2023-06-19T10:02:06;39.00;10.30
578;DHT22;275;48.492;9.214;2023-06-19T10:04:42;40.40;9.10
578;DHT22;275;48.492;9.214;2023-06-19T10:07:15;39.60;9.10
578;DHT22;275;48.492;9.214;2023-06-19T10:09:56;36.90;10.70
578;DHT22;275;48.492;9.214;2023-06-19T10:12:34;37.40;11.40
578;DHT22;275;48.492;9.214;2023-06-19T10:15:08;37.10;11.40
578;DHT22;275;48.492;9.214;2023-06-19T10:17:35;35.90;12.60
578;DHT22;275;48.492;9.214;2023-06-19T10:20:02;36.20;12.80
578;DHT22;275;48.492;9.214;2023-06-19T10:22:30;38.30;10.80
578;DHT22;275;48.492;9.214;2023-06-19T10:24:58;37.90;10.50
578;DHT22;275;48.492;9.214;2023-06-19T10:27:25;37.30;10.90
578;DHT22;275;48.492;9.214;2023-06-19T10:29:52;38.50;10.40
578;DHT22;275;48.492;9.214;2023-06-19T10:32:20;40.60;8.60
578;DHT22;275;48.492;9.214;2023-06-19T10:34:48;40.60;7.50
578;DHT22;275;48.492;9.214;2023-06-19T10:37:15;38.60;10.10
578;DHT22;275;48.492;9.214;2023-06-19T10:39:42;39.40;9.20
578;DHT22;275;48.492;9.214;2023-06-19T10:42:11;39.90;8.70
578;DHT22;275;48.492;9.214;2023-06-19T10:44:37;40.90;8.20
578;DHT22;275;48.492;9.214;2023-06-19T10:47:04;41.70;7.50
578;DHT22;275;48.492;9.214;2023-06-19T10:49:32;41.70;7.40
578;DHT22;275;48.492;9.214;2023-06-19T10:52:00;43.90;5.90
578;DHT22;275;48.492;9.214;2023-06-19T10:54:28;44.90;5.10
578;DHT22;275;48.492;9.214;2023-06-19T10:56:55;45.10;4.70
578;DHT22;275;48.492;9.214;2023-06-19T10:59:24;44.90;4.60
578;DHT22;275;48.492;9.214;2023-06-19T11:01:52;42.90;6.00
578;DHT22;275;48.492;9.214;2023-06-19T11:04:19;42.40;6.40
578;DHT22;275;48.492;9.214;2023-06-19T11:06:49;42.70;5.80
578;DHT22;275;48.492;9.214;2023-06-19T11:09:16;40.90;7.00
578;DHT22;275;48.492;9.214;2023-06-19T11:11:46;39.00;8.80
578;DHT22;275;48.492;9.214;2023-06-19T11:14:15;40.00;8.00
578;DHT22;275;48.492;9.214;2023-06-19T11:16:45;40.60;7.40
578;DHT22;275;48.492;9.214;2023-06-19T11:19:16;41.70;6.50
578;DHT22;275;48.492;9.214;2023-06-19T11:21:45;42.20;6.50
578;DHT22;275;48.492;9.214;2023-06-19T11:24:13;43.40;5.30
578;DHT22;275;48.492;9.214;2023-06-19T11:26:42;40.20;7.70
578;DHT22;275;48.492;9.214;2023-06-19T11:29:15;39.30;8.70
578;DHT22;275;48.492;9.214;2023-06-19T11:31:47;37.10;10.30
578;DHT22;275;48.492;9.214;2023-06-19T11:34:14;35.40;11.80
578;DHT22;275;48.492;9.214;2023-06-19T11:36:42;36.00;11.90
578;DHT22;275;48.492;9.214;2023-06-19T11:39:10;36.50;11.20
578;DHT22;275;48.492;9.214;2023-06-19T11:41:39;36.10;12.20
578;DHT22;275;48.492;9.214;2023-06-19T11:44:07;37.30;10.70
578;DHT22;275;48.492;9.214;2023-06-19T11:46:34;37.50;10.40
578;DHT22;275;48.492;9.214;2023-06-19T11:49:10;35.30;12.10
578;DHT22;275;48.492;9.214;2023-06-19T11:51:37;36.30;11.00
578;DHT22;275;48.492;9.214;2023-06-19T11:54:06;37.80;9.60
578;DHT22;275;48.492;9.214;2023-06-19T11:56:33;40.40;7.50
578;DHT22;275;48.492;9.214;2023-06-19T11:59:01;40.70;6.70
578;DHT22;275;48.492;9.214;2023-06-19T12:01:27;41.30;6.00
578;DHT22;275;48.492;9.214;2023-06-19T12:03:55;41.70;5.40
578;DHT22;275;48.492;9.214;2023-06-19T12:06:23;39.50;6.60
578;DHT22;275;48.492;9.214;2023-06-19T12:08:50;39.40;7.40
578;DHT22;275;48.492;9.214;2023-06-19T12:11:17;40.10;6.60
578;DHT22;275;48.492;9.214;2023-06-19T12:13:44;41.40;5.60
578;DHT22;275;48.492;9.214;2023-06-19T12:16:11;42.50;4.80
578;DHT22;275;48.492;9.214;2023-06-19T12:18:38;44.40;3.60
578;DHT22;275;48.492;9.214;2023-06-19T12:21:05;41.40;5.20
578;DHT22;275;48.492;9.214;2023-06-19T12:23:34;40.00;6.40
578;DHT22;275;48.492;9.214;2023-06-19T12:26:00;39.90;7.20
578;DHT22;275;48.492;9.214;2023-06-19T12:28:27;39.60;7.10
578;DHT22;275;48.492;9.214;2023-06-19T12:30:55;37.60;8.60
578;DHT22;275;48.492;9.214;2023-06-19T12:33:23;38.80;8.00
578;DHT22;275;48.492;9.214;2023-06-19T12:35:50;39.90;7.00
578;DHT22;275;48.492;9.214;2023-06-19T12:38:17;40.10;6.40
578;DHT22;275;48.492;9.214;2023-06-19T12:40:45;41.40;5.60
578;DHT22;275;48.492;9.214;2023-06-19T12:43:12;40.50;6.20
578;DHT22;275;48.492;9.214;2023-06-19T12:45:39;40.80;5.70
578;DHT22;275;48.492;9.214;2023-06-19T12:48:06;40.40;6.20
578;DHT22;275;48.492;9.214;2023-06-19T12:50:33;40.50;6.20
578;DHT22;275;48.492;9.214;2023-06-19T12:53:00;40.30;6.20
578;DHT22;275;48.492;9.214;2023-06-19T12:55:28;39.40;6.80
578;DHT22;275;48.492;9.214;2023-06-19T12:57:56;38.30;8.00
578;DHT22;275;48.492;9.214;2023-06-19T13:00:23;37.40;8.70
578;DHT22;275;48.492;9.214;2023-06-19T13:02:50;37.30;9.00
578;DHT22;275;48.492;9.214;2023-06-19T13:05:17;35.70;10.50
578;DHT22;275;48.492;9.214;2023-06-19T13:07:44;35.00;11.30
578;DHT22;275;48.492;9.214;2023-06-19T13:10:11;35.00;11.30
578;DHT22;275;48.492;9.214;2023-06-19T13:12:37;34.20;12.30
578;DHT22;275;48.492;9.214;2023-06-19T13:15:07;34.00;12.60
578;DHT22;275;48.492;9.214;2023-06-19T13:17:34;34.80;11.40
578;DHT22;275;48.492;9.214;2023-06-19T13:20:01;34.80;11.30
578;DHT22;275;48.492;9.214;2023-06-19T13:22:29;34.90;11.10
578;DHT22;275;48.492;9.214;2023-06-19T13:24:56;35.30;10.80
578;DHT22;275;48.492;9.214;2023-06-19T13:27:23;35.50;10.50
578;DHT22;275;48.492;9.214;2023-06-19T13:29:50;35.40;10.70
578;DHT22;275;48.492;9.214;2023-06-19T13:32:18;34.80;11.40
578;DHT22;275;48.492;9.214;2023-06-19T13:34:45;34.60;11.80
578;DHT22;275;48.492;9.214;2023-06-19T13:37:12;34.30;12.10
578;DHT22;275;48.492;9.214;2023-06-19T13:39:39;34.10;12.50
578;DHT22;275;48.492;9.214;2023-06-19T13:42:06;34.30;12.40
578;DHT22;275;48.492;9.214;2023-06-19T13:44:33;34.00;12.70
578;DHT22;275;48.492;9.214;2023-06-19T13:47:00;34.20;12.60
578;DHT22;275;48.492;9.214;2023-06-19T13:49:28;34.50;12.20
578;DHT22;275;48.492;9.214;2023-06-19T13:51:55;34.70;12.10
578;DHT22;275;48.492;9.214;2023-06-19T13:54:22;35.20;11.60
578;DHT22;275;48.492;9.214;2023-06-19T13:56:50;35.10;11.70
578;DHT22;275;48.492;9.214;2023-06-19T13:59:17;34.90;11.90
578;DHT22;275;48.492;9.214;2023-06-19T14:01:44;34.50;12.30
578;DHT22;275;48.492;9.214;2023-06-19T14:04:11;34.20;12.60
578;DHT22;275;48.492;9.214;2023-06-19T14:06:39;34.20;12.20
578;DHT22;275;48.492;9.214;2023-06-19T14:09:08;34.30;12.00
578;DHT22;275;48.492;9.214;2023-06-19T14:11:35;34.00;12.30
578;DHT22;275;48.492;9.214;2023-06-19T14:14:01;34.10;12.20
578;DHT22;275;48.492;9.214;2023-06-19T14:16:28;33.70;12.90
578;DHT22;275;48.492;9.214;2023-06-19T14:18:55;34.00;12.60
578;DHT22;275;48.492;9.214;2023-06-19T14:21:22;34.50;12.10
578;DHT22;275;48.492;9.214;2023-06-19T14:23:51;34.90;11.70
578;DHT22;275;48.492;9.214;2023-06-19T14:26:18;35.50;11.30
578;DHT22;275;48.492;9.214;2023-06-19T14:28:47;35.90;10.90
578;DHT22;275;48.492;9.214;2023-06-19T14:31:14;36.20;10.80
578;DHT22;275;48.492;9.214;2023-06-19T14:33:43;36.30;10.80
578;DHT22;275;48.492;9.214;2023-06-19T14:36:10;35.90;11.00
578;DHT22;275;48.492;9.214;2023-06-19T14:38:39;36.40;10.50
578;DHT22;275;48.492;9.214;2023-06-19T14:41:07;35.80;11.10
578;DHT22;275;48.492;9.214;2023-06-19T14:43:34;34.70;12.20
578;DHT22;275;48.492;9.214;2023-06-19T14:46:01;34.70;12.50
578;DHT22;275;48.492;9.214;2023-06-19T14:48:29;34.40;13.00
578;DHT22;275;48.492;9.214;2023-06-19T14:50:57;34.40;12.60
578;DHT22;275;48.492;9.214;2023-06-19T14:53:23;34.00;12.60
578;DHT22;275;48.492;9.214;2023-06-19T14:55:50;33.60;13.60
578;DHT22;275;48.492;9.214;2023-06-19T14:58:19;33.50;13.90
578;DHT22;275;48.492;9.214;2023-06-19T15:00:45;33.20;13.90
578;DHT22;275;48.492;9.214;2023-06-19T15:03:13;32.70;15.20
578;DHT22;275;48.492;9.214;2023-06-19T15:05:40;33.30;14.00
578;DHT22;275;48.492;9.214;2023-06-19T15:08:07;33.60;13.60
578;DHT22;275;48.492;9.214;2023-06-19T15:10:35;34.30;13.00
578;DHT22;275;48.492;9.214;2023-06-19T15:13:02;34.10;13.30
578;DHT22;275;48.492;9.214;2023-06-19T15:15:30;34.10;13.30
578;DHT22;275;48.492;9.214;2023-06-19T15:17:57;33.90;13.20
578;DHT22;275;48.492;9.214;2023-06-19T15:20:25;33.70;13.30
578;DHT22;275;48.492;9.214;2023-06-19T15:22:52;33.50;13.70
578;DHT22;275;48.492;9.214;2023-06-19T15:25:19;33.70;13.70
578;DHT22;275;48.492;9.214;2023-06-19T15:27:46;33.40;13.60
578;DHT22;275;48.492;9.214;2023-06-19T15:30:13;33.00;14.10
578;DHT22;275;48.492;9.214;2023-06-19T15:32:41;32.80;14.50
578;DHT22;275;48.492;9.214;2023-06-19T15:35:08;32.60;14.60
578;DHT22;275;48.492;9.214;2023-06-19T15:37:35;32.40;15.00
578;DHT22;275;48.492;9.214;2023-06-19T15:40:02;32.40;15.00
578;DHT22;275;48.492;9.214;2023-06-19T15:42:30;32.20;14.90
578;DHT22;275;48.492;9.214;2023-06-19T15:44:57;31.40;19.10
578;DHT22;275;48.492;9.214;2023-06-19T15:47:25;31.30;20.20
578;DHT22;275;48.492;9.214;2023-06-19T15:49:53;30.60;24.90
578;DHT22;275;48.492;9.214;2023-06-19T15:52:20;28.90;28.70
578;DHT22;275;48.492;9.214;2023-06-19T15:54:47;27.20;32.80
578;DHT22;275;48.492;9.214;2023-06-19T15:57:13;26.20;35.90
578;DHT22;275;48.492;9.214;2023-06-19T15:59:40;26.40;36.60
578;DHT22;275;48.492;9.214;2023-06-19T16:02:07;26.90;36.30
578;DHT22;275;48.492;9.214;2023-06-19T16:04:34;27.60;38.70
578;DHT22;275;48.492;9.214;2023-06-19T16:07:02;28.40;35.50
578;DHT22;275;48.492;9.214;2023-06-19T16:09:29;28.30;38.50
578;DHT22;275;48.492;9.214;2023-06-19T16:11:56;27.90;38.70
578;DHT22;275;48.492;9.214;2023-06-19T16:14:23;28.00;39.00
578;DHT22;275;48.492;9.214;2023-06-19T16:16:50;28.20;37.90
578;DHT22;275;48.492;9.214;2023-06-19T16:19:16;28.60;38.20
578;DHT22;275;48.492;9.214;2023-06-19T16:21:43;29.30;34.90
578;DHT22;275;48.492;9.214;2023-06-19T16:24:11;29.70;33.20
578;DHT22;275;48.492;9.214;2023-06-19T16:26:38;29.30;33.20
578;DHT22;275;48.492;9.214;2023-06-19T16:29:06;28.40;36.20
578;DHT22;275;48.492;9.214;2023-06-19T16:31:33;27.90;38.30
578;DHT22;275;48.492;9.214;2023-06-19T16:34:01;27.70;39.30
578;DHT22;275;48.492;9.214;2023-06-19T16:36:28;27.20;40.70
578;DHT22;275;48.492;9.214;2023-06-19T16:38:55;26.40;43.00